Airfield :







YOU CAN JOIN US ON...

 
LOGIN :

Register | Disclaimer

   EN    FR    IT 

 









Legend :    VFR   Marginal VFR   IFR   Intensive IFR   Very Intensive IFR
Visi :
Ceiling :
>= 8 km
>= 3000ft
5 to 8 km
1000 to 3000 ft
1500m to 5 km
500 to 1000 ft
800 to 1500m
200 to 500 ft
< 800m
< 200 ft
Symbols :   Thunderstorms  Fog  Heavy snow  Heavy precipitations  Wind > 20 kt






- Airport Elevation : 244 ft
- IATA code : YQB


CYQB - Quebec - Jean Lesage Int.

CURRENT METAR :
  • 012100Z 24010KT 30SM SCT047 BKN089 16/10 A2978 RMK SC4AC1 SLP088 DENSITY ALT 600FT

EXPIRED METARs :
  • 012000Z 23012G19KT 30SM SCT043 SCT080 17/10 A2977 RMK CU3AC1 SLP085 DENSITY ALT 800FT
  • 011900Z 24012G21KT 30SM SCT043 SCT070 SCT170 17/11 A2976 RMK CU3AC1AC1 AC TR SLP081 DENSITY ALT 800FT

TAF TAF CYQB
Valid from the 01 at 18:00 until the 02 at 18:00 UTC


011738Z 0118/0218 24012KT P6SM OVC030
TEMPO 0118/0123 3SM -SHRA BR OVC009
FM012300 24008KT P6SM SCT006 OVC012
TEMPO 0123/0206 3SM -RA -DZ BR OVC006
FM020600 VRB03KT 2SM -RA -DZ BR OVC006
TEMPO 0206/0214 4SM BR OVC008
PROB30 0208/0213 1SM -DZ BR OVC004
FM021400 10005KT 6SM BR OVC010
TEMPO 0214/0218 2SM -RA -DZ BR OVC006 RMK NXT FCST BY 020000Z
ATIS : ENG : +1 418-871-6893 FRA : +1 418-871-6895
CZUL FIR / North America



MET'MAP, your aeronautical weather chart ! - Copyright ORBIFLY December 2007 - Disclaimer

ORBIFLY MET'MAP TEAM :

Programming & Development : Alexandra Zaïnal
Concept & original design : Baudouin d'Aumeries
Assistance for programming : Marc-Olivier Méhu
Technical & hardware support : Manuel Goepfert

Contact : metmap@orbifly.com




SOURCES & CREDITS :

   NOAA